Time;durP1;ratioP1;P1;durP2;ratioP2;P2;SDS_P1;SDS_P2;PMS_P1;PMS_P2;Temp;Humidity;BMP_temperature;BMP_pressure;BME280_temperature;BME280_humidity;BME280_pressure;Samples;Min_cycle;Max_cycle;Signal;HPM_P1;HPM_P2
2022/10/22 00:01:57;;;;;;;7.87;3.13;;;16.20;97.40;;;;;;5074557;28;20496;-71
2022/10/22 00:04:24;;;;;;;9.23;3.77;;;16.20;97.70;;;;;;5075385;28;20481;-71
2022/10/22 00:06:50;;;;;;;5.03;3.73;;;16.20;97.90;;;;;;5075177;28;20452;-71
2022/10/22 00:09:17;;;;;;;5.07;3.33;;;16.20;98.20;;;;;;5074663;28;20468;-71
2022/10/22 00:11:44;;;;;;;4.10;3.17;;;16.20;98.40;;;;;;5074616;28;20448;-71
2022/10/22 00:14:12;;;;;;;7.00;2.97;;;16.20;98.50;;;;;;5074681;28;20445;-71
2022/10/22 00:16:40;;;;;;;5.90;2.70;;;16.20;98.70;;;;;;5074573;28;20459;-71
2022/10/22 00:19:08;;;;;;;5.70;3.00;;;16.20;98.70;;;;;;5074076;28;20827;-71
2022/10/22 00:21:34;;;;;;;3.33;2.50;;;16.20;98.70;;;;;;5074531;28;20460;-72
2022/10/22 00:24:01;;;;;;;8.63;3.77;;;16.30;98.80;;;;;;5074651;28;20491;-71
2022/10/22 00:26:28;;;;;;;5.50;2.37;;;16.30;98.90;;;;;;5074707;28;20460;-71
2022/10/22 00:28:55;;;;;;;7.90;3.60;;;16.30;99.00;;;;;;5074894;28;20466;-71
2022/10/22 00:31:21;;;;;;;12.10;3.90;;;16.30;99.00;;;;;;5074874;28;20456;-71
2022/10/22 00:33:49;;;;;;;11.37;3.77;;;16.30;98.90;;;;;;5074316;28;20916;-71
2022/10/22 00:36:16;;;;;;;10.60;3.97;;;16.30;98.80;;;;;;5074776;28;20456;-71
2022/10/22 00:38:43;;;;;;;3.57;3.27;;;16.30;98.70;;;;;;5076380;28;20460;-71
2022/10/22 00:41:10;;;;;;;7.83;3.47;;;16.30;98.60;;;;;;5075852;28;20465;-71
2022/10/22 00:43:56;;;;;;;5.33;3.30;;;16.30;98.50;;;;;;5074983;28;20484;-71
2022/10/22 00:46:23;;;;;;;6.10;3.10;;;16.30;98.40;;;;;;5074729;28;20422;-71
2022/10/22 00:48:52;;;;;;;7.33;3.00;;;16.20;98.30;;;;;;5074443;28;20440;-71
2022/10/22 00:51:21;;;;;;;4.13;3.00;;;16.20;98.20;;;;;;5074403;28;20866;-71
2022/10/22 00:53:52;;;;;;;4.47;3.27;;;16.20;98.20;;;;;;5074005;28;20444;-71
2022/10/22 00:56:19;;;;;;;5.37;3.10;;;16.20;98.20;;;;;;5074741;28;20437;-71
2022/10/22 00:58:52;;;;;;;8.47;3.87;;;16.20;98.20;;;;;;5074347;28;20448;-71
2022/10/22 01:01:22;;;;;;;4.47;3.10;;;16.20;98.20;;;;;;5074337;28;20560;-71
2022/10/22 01:03:50;;;;;;;5.73;3.00;;;16.20;98.30;;;;;;5074364;28;21031;-71
2022/10/22 01:06:24;;;;;;;7.10;3.37;;;16.20;98.20;;;;;;5074518;28;20474;-71
2022/10/22 01:08:57;;;;;;;10.13;2.90;;;16.20;98.20;;;;;;5074161;28;20441;-71
2022/10/22 01:11:29;;;;;;;9.77;3.40;;;16.10;98.10;;;;;;5074405;28;20433;-71
2022/10/22 01:14:04;;;;;;;3.80;2.67;;;16.10;98.10;;;;;;5074527;28;20428;-71
2022/10/22 01:16:37;;;;;;;7.17;3.93;;;16.10;98.00;;;;;;5074394;28;20436;-71
2022/10/22 01:19:25;;;;;;;6.20;3.93;;;16.10;98.00;;;;;;5074687;28;20807;-71
2022/10/22 01:21:57;;;;;;;5.10;3.50;;;16.10;98.00;;;;;;5074445;28;20437;-71
2022/10/22 01:24:37;;;;;;;9.00;3.60;;;16.00;98.00;;;;;;5074276;28;20469;-71
2022/10/22 01:27:15;;;;;;;6.00;4.10;;;16.00;98.00;;;;;;5074129;28;20846;-71
2022/10/22 01:29:46;;;;;;;6.47;3.73;;;16.00;98.10;;;;;;5074076;28;20833;-72
2022/10/22 01:32:17;;;;;;;4.63;4.20;;;16.00;98.00;;;;;;5074232;28;20437;-71
2022/10/22 01:34:48;;;;;;;4.43;4.03;;;16.00;98.00;;;;;;5073795;28;20421;-72
2022/10/22 01:37:17;;;;;;;6.20;4.83;;;16.00;98.00;;;;;;5073987;28;20452;-71
2022/10/22 01:39:46;;;;;;;10.60;5.17;;;15.90;97.90;;;;;;5074061;28;20479;-71
2022/10/22 01:42:13;;;;;;;4.60;4.00;;;15.90;97.90;;;;;;5074273;28;20456;-71
2022/10/22 01:44:41;;;;;;;6.90;4.90;;;15.90;97.90;;;;;;5074146;28;20468;-71
2022/10/22 01:47:16;;;;;;;7.27;4.50;;;15.80;97.80;;;;;;5074349;28;20452;-71
2022/10/22 01:50:00;;;;;;;6.53;5.53;;;15.90;97.90;;;;;;5073694;28;20990;-71
2022/10/22 01:52:33;;;;;;;7.93;5.23;;;15.90;97.90;;;;;;5074108;28;20419;-71
2022/10/22 01:55:12;;;;;;;7.27;5.60;;;15.80;97.80;;;;;;5073906;28;20448;-71
2022/10/22 01:57:49;;;;;;;9.10;5.53;;;15.80;97.90;;;;;;5074126;28;20437;-71
2022/10/22 02:00:18;;;;;;;10.43;5.60;;;15.80;97.90;;;;;;5073922;28;20476;-71
2022/10/22 02:02:54;;;;;;;5.83;5.33;;;15.80;97.90;;;;;;5073871;28;20449;-71
2022/10/22 02:05:24;;;;;;;6.27;5.70;;;15.80;98.00;;;;;;5076042;28;20471;-71
2022/10/22 02:07:55;;;;;;;11.47;6.10;;;15.70;98.00;;;;;;5077566;28;20972;-71
2022/10/22 02:10:23;;;;;;;8.90;6.60;;;15.70;98.00;;;;;;5077767;28;20465;-71
2022/10/22 02:12:53;;;;;;;8.63;5.20;;;15.70;98.00;;;;;;5077832;28;20452;-71
2022/10/22 02:15:21;;;;;;;12.87;6.33;;;15.70;97.90;;;;;;5077379;28;20436;-71
2022/10/22 02:17:51;;;;;;;9.37;6.20;;;15.70;97.80;;;;;;5077570;28;20440;-71
2022/10/22 02:20:19;;;;;;;7.90;5.23;;;15.70;97.80;;;;;;5077421;28;20848;-71
2022/10/22 02:22:47;;;;;;;8.73;5.90;;;15.60;97.60;;;;;;5077648;28;20453;-71
2022/10/22 02:25:14;;;;;;;7.90;5.80;;;15.60;97.60;;;;;;5077057;28;21022;-71
2022/10/22 02:27:44;;;;;;;7.37;5.53;;;15.60;97.60;;;;;;5077000;28;20449;-71
2022/10/22 02:30:14;;;;;;;8.27;5.43;;;15.60;97.60;;;;;;5077238;28;20477;-71
2022/10/22 02:32:48;;;;;;;5.13;4.63;;;15.60;97.70;;;;;;5077754;28;20444;-71
2022/10/22 02:35:20;;;;;;;7.00;4.93;;;15.50;97.60;;;;;;5077511;28;20437;-71
2022/10/22 02:37:48;;;;;;;6.77;5.03;;;15.50;97.60;;;;;;5077708;28;20777;-71
2022/10/22 02:40:15;;;;;;;13.43;5.17;;;15.50;97.70;;;;;;5077276;28;20472;-71
2022/10/22 02:42:42;;;;;;;6.43;4.40;;;15.50;97.70;;;;;;5077441;28;20476;-71
2022/10/22 02:45:10;;;;;;;10.43;4.37;;;15.50;98.00;;;;;;5077670;28;20480;-71
2022/10/22 02:47:37;;;;;;;7.03;4.07;;;15.50;98.40;;;;;;5077053;28;20452;-71
2022/10/22 02:50:04;;;;;;;6.43;4.53;;;15.50;99.00;;;;;;5076915;28;21000;-71
2022/10/22 02:52:32;;;;;;;6.33;4.07;;;15.50;99.50;;;;;;5077170;28;20444;-71
2022/10/22 02:54:59;;;;;;;5.67;4.50;;;15.50;99.90;;;;;;5077631;28;20821;-71
2022/10/22 02:57:26;;;;;;;5.53;4.93;;;15.50;99.90;;;;;;5077084;28;20441;-71
2022/10/22 02:59:52;;;;;;;7.47;5.10;;;15.50;99.90;;;;;;5077157;28;20480;-71
2022/10/22 03:02:19;;;;;;;6.10;4.60;;;15.50;99.90;;;;;;5077148;28;20448;-71
2022/10/22 03:04:46;;;;;;;8.00;5.00;;;15.50;99.90;;;;;;5077471;28;20488;-71
2022/10/22 03:07:13;;;;;;;5.40;4.00;;;15.50;99.90;;;;;;5077879;28;20822;-71
2022/10/22 03:09:41;;;;;;;10.33;3.90;;;15.60;99.90;;;;;;5078397;28;20980;-71
2022/10/22 03:12:08;;;;;;;8.40;4.87;;;15.60;99.90;;;;;;5079228;28;20444;-71
2022/10/22 03:14:35;;;;;;;10.27;4.50;;;15.50;99.90;;;;;;5079174;28;20452;-71
2022/10/22 03:17:02;;;;;;;5.27;4.03;;;15.60;99.90;;;;;;5077680;28;20448;-71
2022/10/22 03:19:29;;;;;;;8.10;4.13;;;15.60;99.90;;;;;;5077955;28;20473;-71
2022/10/22 03:21:59;;;;;;;7.00;4.20;;;15.60;99.90;;;;;;5077998;28;20952;-71
2022/10/22 03:24:31;;;;;;;5.10;4.20;;;15.60;99.90;;;;;;5077865;28;20469;-71
2022/10/22 03:26:59;;;;;;;6.30;4.20;;;15.60;99.90;;;;;;5078832;28;20437;-71
2022/10/22 03:29:27;;;;;;;4.20;3.70;;;15.60;99.90;;;;;;5078764;28;21017;-71
2022/10/22 03:31:55;;;;;;;6.90;4.43;;;15.60;99.90;;;;;;5076693;28;20449;-71
2022/10/22 03:34:22;;;;;;;9.70;5.20;;;15.60;99.90;;;;;;5076874;28;20429;-71
2022/10/22 03:36:49;;;;;;;4.70;4.20;;;15.60;99.90;;;;;;5076671;28;20505;-71
2022/10/22 03:39:18;;;;;;;8.83;4.80;;;15.60;99.90;;;;;;5076717;28;20472;-71
2022/10/22 03:41:46;;;;;;;6.20;4.67;;;15.60;99.90;;;;;;5080467;28;20456;-71
2022/10/22 03:44:16;;;;;;;5.00;4.50;;;15.60;99.90;;;;;;5082548;28;20480;-71
2022/10/22 03:46:43;;;;;;;7.57;5.40;;;15.60;99.90;;;;;;5082091;28;20437;-71
2022/10/22 03:49:10;;;;;;;6.10;4.13;;;15.60;99.90;;;;;;5082848;28;20445;-71
2022/10/22 03:51:37;;;;;;;12.00;4.70;;;15.60;99.90;;;;;;5081578;28;20456;-71
2022/10/22 03:54:04;;;;;;;7.90;4.90;;;15.60;99.90;;;;;;5082020;28;20447;-71
2022/10/22 03:56:30;;;;;;;4.93;4.10;;;15.60;99.90;;;;;;5090598;28;20584;-71
2022/10/22 03:58:58;;;;;;;8.20;4.37;;;15.70;99.90;;;;;;5098313;28;20441;-71
2022/10/22 04:01:27;;;;;;;8.83;4.13;;;15.70;99.90;;;;;;5098261;28;20448;-71
2022/10/22 04:03:54;;;;;;;9.63;4.77;;;15.70;99.90;;;;;;5091381;28;20456;-71
2022/10/22 04:06:21;;;;;;;7.20;4.13;;;15.70;99.90;;;;;;5082745;28;20491;-71
2022/10/22 04:08:49;;;;;;;6.90;4.90;;;15.70;99.90;;;;;;5081405;28;20460;-71
2022/10/22 04:11:16;;;;;;;7.00;4.03;;;15.70;99.90;;;;;;5081403;28;20440;-71
2022/10/22 04:13:44;;;;;;;5.30;4.60;;;15.70;99.90;;;;;;5081757;28;20448;-71
2022/10/22 04:16:13;;;;;;;5.00;4.47;;;15.70;99.90;;;;;;5080359;28;20448;-71
2022/10/22 04:18:42;;;;;;;5.10;4.40;;;15.80;99.90;;;;;;5082558;28;20456;-71
2022/10/22 04:21:11;;;;;;;7.27;4.63;;;15.80;99.90;;;;;;5075312;28;20461;-71
2022/10/22 04:23:38;;;;;;;23.53;5.20;;;15.80;99.90;;;;;;5074939;28;20425;-71
2022/10/22 04:26:07;;;;;;;7.10;3.90;;;15.80;99.90;;;;;;5074953;28;20507;-71
2022/10/22 04:28:34;;;;;;;7.70;4.23;;;15.80;99.90;;;;;;5074313;28;20448;-71
2022/10/22 04:31:07;;;;;;;5.80;3.97;;;15.80;99.90;;;;;;5073763;28;20469;-71
2022/10/22 04:33:33;;;;;;;6.60;4.57;;;15.80;99.90;;;;;;5074095;28;20448;-71
2022/10/22 04:36:06;;;;;;;5.30;4.30;;;15.80;99.90;;;;;;5073567;28;20455;-71
2022/10/22 04:38:33;;;;;;;7.57;4.40;;;15.70;99.90;;;;;;5073919;28;20500;-71
2022/10/22 04:41:08;;;;;;;7.60;4.70;;;15.70;99.90;;;;;;5073721;28;20899;-71
2022/10/22 04:43:35;;;;;;;9.40;4.27;;;15.70;99.90;;;;;;5073652;28;20455;-71
2022/10/22 04:46:02;;;;;;;5.40;3.90;;;15.70;99.90;;;;;;5073877;28;20495;-71
2022/10/22 04:48:28;;;;;;;6.47;4.03;;;15.70;99.90;;;;;;5073578;28;20956;-71
2022/10/22 04:50:57;;;;;;;6.37;4.23;;;15.70;99.90;;;;;;5073597;28;20475;-71
2022/10/22 04:53:25;;;;;;;7.97;3.67;;;15.60;99.90;;;;;;5073749;28;20857;-71
2022/10/22 04:55:51;;;;;;;6.20;4.30;;;15.60;99.90;;;;;;5073208;28;20951;-71
2022/10/22 04:58:18;;;;;;;7.50;4.70;;;15.60;99.90;;;;;;5073559;28;20433;-71
2022/10/22 05:00:45;;;;;;;8.50;5.20;;;15.60;99.90;;;;;;5073567;28;20472;-71
2022/10/22 05:03:11;;;;;;;6.83;4.60;;;15.60;99.90;;;;;;5073539;28;20444;-71
2022/10/22 05:05:38;;;;;;;5.60;3.70;;;15.60;99.90;;;;;;5073459;28;20484;-71
2022/10/22 05:08:05;;;;;;;6.80;5.17;;;15.60;99.90;;;;;;5074025;28;20440;-71
2022/10/22 05:10:33;;;;;;;8.57;4.60;;;15.60;99.90;;;;;;5074093;28;20476;-71
2022/10/22 05:13:00;;;;;;;6.10;4.70;;;15.60;99.90;;;;;;5073938;28;20494;-71
2022/10/22 05:15:26;;;;;;;9.13;5.13;;;15.60;99.90;;;;;;5074241;28;20441;-71
2022/10/22 05:17:53;;;;;;;9.70;4.40;;;15.60;99.90;;;;;;5073378;28;20982;-71
2022/10/22 05:20:20;;;;;;;5.97;3.90;;;15.60;99.90;;;;;;5073787;28;20468;-71
2022/10/22 05:22:46;;;;;;;7.83;4.10;;;15.60;99.90;;;;;;5073569;28;20460;-70
2022/10/22 05:25:13;;;;;;;5.93;3.70;;;15.60;99.90;;;;;;5074023;28;20488;-70
2022/10/22 05:27:41;;;;;;;6.73;5.00;;;15.60;99.90;;;;;;5073491;28;20460;-71
2022/10/22 05:30:08;;;;;;;11.47;6.73;;;15.60;99.90;;;;;;5073629;28;20468;-71
2022/10/22 05:32:35;;;;;;;9.47;3.90;;;15.60;99.90;;;;;;5073245;28;20501;-70
2022/10/22 05:35:02;;;;;;;7.30;5.70;;;15.60;99.90;;;;;;5072942;28;20448;-70
2022/10/22 05:37:29;;;;;;;6.80;4.63;;;15.60;99.90;;;;;;5073483;28;20452;-71
2022/10/22 05:39:55;;;;;;;6.17;3.87;;;15.60;99.90;;;;;;5075242;28;20495;-71
2022/10/22 05:42:22;;;;;;;7.47;4.50;;;15.50;99.90;;;;;;5076926;28;20471;-70
2022/10/22 05:44:50;;;;;;;10.20;4.50;;;15.60;99.90;;;;;;5077012;28;20469;-70
2022/10/22 05:47:17;;;;;;;7.30;4.23;;;15.60;99.90;;;;;;5077832;28;20448;-70
2022/10/22 05:49:43;;;;;;;6.43;3.93;;;15.60;99.90;;;;;;5076946;28;20479;-71
2022/10/22 05:52:11;;;;;;;6.10;4.17;;;15.60;99.90;;;;;;5076934;28;20865;-70
2022/10/22 05:54:38;;;;;;;10.33;3.60;;;15.50;99.90;;;;;;5076982;28;20482;-70
2022/10/22 05:57:04;;;;;;;8.03;3.50;;;15.60;99.90;;;;;;5076969;28;20453;-70
2022/10/22 05:59:31;;;;;;;7.90;4.57;;;15.60;99.90;;;;;;5076882;28;20472;-70
2022/10/22 06:01:59;;;;;;;8.90;4.30;;;15.60;99.90;;;;;;5076830;28;20448;-70
2022/10/22 06:04:26;;;;;;;12.13;3.63;;;15.60;99.90;;;;;;5076906;28;20445;-70
2022/10/22 06:06:54;;;;;;;7.57;3.73;;;15.60;99.90;;;;;;5076867;28;20491;-70
2022/10/22 06:09:24;;;;;;;10.43;3.70;;;15.70;99.90;;;;;;5076591;28;20472;-70
2022/10/22 06:11:52;;;;;;;6.60;3.60;;;15.60;99.90;;;;;;5077141;28;20436;-70
2022/10/22 06:14:19;;;;;;;8.90;3.30;;;15.60;99.90;;;;;;5076548;28;20510;-70
2022/10/22 06:16:46;;;;;;;8.40;3.60;;;15.60;99.90;;;;;;5076224;28;20459;-65
2022/10/22 06:19:16;;;;;;;9.47;3.33;;;15.50;99.90;;;;;;5076395;28;20836;-69
2022/10/22 06:21:44;;;;;;;9.73;3.60;;;15.60;99.90;;;;;;5076476;28;20459;-70
2022/10/22 06:24:11;;;;;;;8.20;3.50;;;15.60;99.90;;;;;;5076389;28;20448;-69
2022/10/22 06:26:38;;;;;;;6.50;3.23;;;15.60;99.90;;;;;;5076233;28;20483;-70
2022/10/22 06:29:04;;;;;;;9.37;3.73;;;15.60;99.90;;;;;;5076226;28;20413;-70
2022/10/22 06:31:35;;;;;;;9.47;3.80;;;15.60;99.90;;;;;;5076378;28;20463;-70
2022/10/22 06:34:02;;;;;;;9.87;3.70;;;15.60;99.90;;;;;;5076293;28;20440;-70
2022/10/22 06:36:30;;;;;;;5.73;2.67;;;15.60;99.90;;;;;;5076350;28;20460;-70
2022/10/22 06:38:57;;;;;;;6.63;4.40;;;15.60;99.90;;;;;;5076380;28;20448;-70
2022/10/22 06:41:25;;;;;;;9.00;3.40;;;15.60;99.90;;;;;;5075756;28;20453;-70
2022/10/22 06:43:53;;;;;;;6.27;3.13;;;15.70;99.90;;;;;;5075960;28;20840;-70
2022/10/22 06:46:21;;;;;;;6.70;3.30;;;15.70;99.90;;;;;;5075735;28;20839;-70
2022/10/22 06:48:53;;;;;;;5.77;2.40;;;15.70;99.90;;;;;;5075608;28;20954;-70
2022/10/22 06:51:20;;;;;;;9.77;2.90;;;15.80;99.90;;;;;;5074811;28;20448;-70
2022/10/22 06:53:49;;;;;;;5.60;2.40;;;15.80;99.90;;;;;;5075918;28;20524;-70
2022/10/22 06:56:18;;;;;;;6.93;2.77;;;15.90;99.90;;;;;;5075966;28;20446;-70
2022/10/22 06:58:48;;;;;;;5.50;2.90;;;15.90;99.90;;;;;;5076351;28;20448;-71
2022/10/22 07:01:17;;;;;;;6.63;2.50;;;16.00;99.70;;;;;;5078341;28;20461;-70
2022/10/22 07:03:43;;;;;;;10.03;2.43;;;16.10;99.50;;;;;;5077800;28;20444;-70
2022/10/22 07:06:12;;;;;;;5.30;2.90;;;16.20;99.20;;;;;;5077880;28;20484;-70
2022/10/22 07:08:40;;;;;;;6.40;2.70;;;16.20;98.90;;;;;;5077012;28;20817;-71
2022/10/22 07:11:11;;;;;;;5.23;2.70;;;16.20;98.70;;;;;;5076323;28;20468;-71
2022/10/22 07:13:38;;;;;;;8.37;2.83;;;16.20;98.50;;;;;;5077121;28;20433;-70
2022/10/22 07:16:06;;;;;;;7.00;2.60;;;16.30;98.40;;;;;;5085661;28;20500;-69
2022/10/22 07:18:33;;;;;;;5.37;2.37;;;16.30;98.20;;;;;;5091861;28;20449;-68
2022/10/22 07:20:59;;;;;;;12.07;2.50;;;16.30;98.10;;;;;;5091086;28;20460;-68
2022/10/22 07:23:26;;;;;;;6.20;2.60;;;16.30;98.10;;;;;;5091808;28;20432;-68
2022/10/22 07:25:53;;;;;;;7.43;2.03;;;16.30;98.00;;;;;;5091056;28;20487;-69
2022/10/22 07:28:21;;;;;;;6.43;2.17;;;16.30;97.90;;;;;;5090055;28;20452;-68
2022/10/22 07:30:48;;;;;;;4.77;2.70;;;16.30;97.90;;;;;;5083885;28;20465;-70
2022/10/22 07:33:15;;;;;;;8.43;2.37;;;16.40;97.90;;;;;;5075672;28;20434;-70
2022/10/22 07:35:43;;;;;;;5.23;2.53;;;16.30;97.80;;;;;;5075788;28;20456;-70
2022/10/22 07:38:10;;;;;;;9.40;2.87;;;16.30;97.80;;;;;;5075165;28;20956;-71
2022/10/22 07:40:37;;;;;;;10.03;2.53;;;16.40;97.70;;;;;;5075528;28;20469;-71
2022/10/22 07:43:04;;;;;;;9.83;2.57;;;16.40;97.60;;;;;;5075108;28;20460;-71
2022/10/22 07:45:32;;;;;;;6.03;3.00;;;16.40;97.30;;;;;;5074577;28;21029;-71
2022/10/22 07:48:00;;;;;;;7.27;2.37;;;16.40;97.20;;;;;;5075008;28;20563;-70
2022/10/22 07:50:27;;;;;;;6.90;2.23;;;16.50;97.20;;;;;;5075048;28;20810;-71
2022/10/22 07:52:54;;;;;;;13.80;2.67;;;16.50;97.30;;;;;;5074451;28;20982;-71
2022/10/22 07:55:20;;;;;;;8.00;2.03;;;16.50;97.20;;;;;;5074810;28;20445;-71
2022/10/22 07:57:47;;;;;;;7.90;2.50;;;16.50;97.50;;;;;;5074763;28;20456;-71
2022/10/22 08:00:14;;;;;;;11.30;3.00;;;16.60;97.40;;;;;;5074582;28;20496;-71
2022/10/22 08:02:42;;;;;;;5.10;2.47;;;16.60;97.40;;;;;;5074412;28;20936;-71
2022/10/22 08:05:12;;;;;;;6.03;2.57;;;16.80;97.30;;;;;;5075000;28;20425;-71
2022/10/22 08:07:39;;;;;;;5.23;2.63;;;16.80;97.10;;;;;;5074698;28;20448;-71
2022/10/22 08:10:06;;;;;;;12.60;2.27;;;16.80;97.00;;;;;;5074449;28;20479;-71
2022/10/22 08:12:33;;;;;;;7.90;2.27;;;16.90;96.90;;;;;;5074441;28;20855;-71
2022/10/22 08:15:00;;;;;;;6.80;1.90;;;16.90;96.80;;;;;;5074404;28;20843;-71
2022/10/22 08:17:27;;;;;;;5.77;2.53;;;17.00;96.70;;;;;;5074174;28;21017;-71
2022/10/22 08:19:55;;;;;;;6.00;2.70;;;17.10;96.60;;;;;;5074604;28;20559;-72
2022/10/22 08:22:22;;;;;;;9.90;2.80;;;17.20;96.50;;;;;;5074483;28;20433;-71
2022/10/22 08:24:49;;;;;;;6.43;2.50;;;17.20;96.20;;;;;;5074442;28;20445;-71
2022/10/22 08:27:16;;;;;;;7.37;2.23;;;17.30;96.20;;;;;;5074014;28;20584;-71
2022/10/22 08:29:42;;;;;;;7.30;2.73;;;17.30;96.60;;;;;;5074209;28;20479;-72
2022/10/22 08:32:09;;;;;;;10.03;2.20;;;17.40;96.20;;;;;;5074010;28;20448;-72
2022/10/22 08:34:36;;;;;;;7.13;2.40;;;17.40;96.10;;;;;;5074211;28;20453;-72
2022/10/22 08:37:04;;;;;;;6.93;2.07;;;17.50;96.10;;;;;;5074224;28;20445;-72
2022/10/22 08:39:31;;;;;;;6.77;2.00;;;17.60;95.90;;;;;;5074213;28;20563;-72
2022/10/22 08:42:08;;;;;;;9.60;2.37;;;17.60;95.60;;;;;;5074000;28;20460;-72
2022/10/22 08:44:49;;;;;;;4.77;2.67;;;17.60;95.60;;;;;;5074176;28;20433;-72
2022/10/22 08:47:31;;;;;;;8.30;2.30;;;17.60;95.60;;;;;;5074058;28;20837;-72
2022/10/22 08:49:59;;;;;;;5.30;2.40;;;17.60;95.60;;;;;;5073778;28;20469;-72
2022/10/22 08:52:27;;;;;;;10.30;2.67;;;17.60;95.80;;;;;;5074067;28;20453;-72
2022/10/22 08:54:57;;;;;;;7.63;2.10;;;17.60;95.60;;;;;;5073770;28;20440;-69
2022/10/22 08:57:43;;;;;;;13.07;3.93;;;17.60;95.70;;;;;;5074295;28;20482;-70
2022/10/22 09:00:13;;;;;;;4.10;2.40;;;17.60;95.80;;;;;;5074023;28;20476;-71
2022/10/22 09:02:52;;;;;;;4.77;2.13;;;17.80;95.90;;;;;;5073963;28;20800;-70
2022/10/22 09:05:33;;;;;;;4.90;1.60;;;18.00;95.40;;;;;;5073882;28;20445;-70
2022/10/22 09:08:01;;;;;;;7.17;2.13;;;18.20;94.70;;;;;;5073922;28;20434;-70
2022/10/22 09:10:35;;;;;;;11.03;3.60;;;18.30;94.50;;;;;;5074213;28;20461;-70
2022/10/22 09:13:02;;;;;;;3.60;1.60;;;18.40;94.10;;;;;;5073718;28;20437;-71
2022/10/22 09:15:30;;;;;;;5.67;2.10;;;18.40;93.90;;;;;;5072926;28;20452;-71
2022/10/22 09:18:11;;;;;;;5.70;2.00;;;18.50;93.60;;;;;;5073121;28;20862;-71
2022/10/22 09:20:44;;;;;;;7.27;1.93;;;18.50;93.30;;;;;;5073432;28;20491;-71
2022/10/22 09:23:24;;;;;;;5.60;1.77;;;18.50;93.20;;;;;;5073482;28;20446;-70
2022/10/22 09:25:52;;;;;;;5.77;1.90;;;18.50;93.40;;;;;;5073333;28;20429;-71
2022/10/22 09:28:18;;;;;;;8.13;2.30;;;18.50;93.20;;;;;;5073431;28;20445;-71
2022/10/22 09:30:45;;;;;;;5.70;1.80;;;18.50;92.90;;;;;;5073103;28;20464;-71
2022/10/22 09:33:16;;;;;;;3.67;1.53;;;18.60;92.60;;;;;;5072707;28;20481;-71
2022/10/22 09:35:46;;;;;;;6.13;1.37;;;18.60;92.80;;;;;;5073447;28;20441;-71
2022/10/22 09:38:18;;;;;;;5.40;1.50;;;18.60;92.50;;;;;;5073444;28;20437;-71
2022/10/22 09:40:48;;;;;;;3.83;1.70;;;18.60;92.10;;;;;;5073637;28;20469;-71
2022/10/22 09:43:15;;;;;;;2.60;1.13;;;18.60;92.30;;;;;;5073058;28;20951;-71
2022/10/22 09:45:43;;;;;;;6.07;1.80;;;18.60;92.40;;;;;;5073600;28;20441;-71
2022/10/22 09:48:18;;;;;;;4.43;1.73;;;18.60;92.20;;;;;;5073584;28;20440;-71
2022/10/22 09:50:46;;;;;;;5.30;1.10;;;18.60;92.20;;;;;;5073411;28;20471;-71
2022/10/22 09:53:18;;;;;;;5.57;1.43;;;18.70;92.40;;;;;;5073378;28;20441;-72
2022/10/22 09:55:50;;;;;;;5.57;1.83;;;18.70;92.10;;;;;;5073724;28;20460;-72
2022/10/22 09:58:18;;;;;;;5.57;1.70;;;18.70;92.00;;;;;;5073852;28;20429;-71
2022/10/22 10:00:48;;;;;;;6.13;1.80;;;18.80;91.90;;;;;;5073134;28;20460;-72
2022/10/22 10:03:19;;;;;;;8.10;2.23;;;18.80;91.80;;;;;;5073100;28;20444;-72
2022/10/22 10:05:48;;;;;;;5.70;1.43;;;18.90;92.00;;;;;;5073578;28;20483;-72
2022/10/22 10:08:17;;;;;;;7.23;1.70;;;19.00;91.80;;;;;;5072649;28;20516;-72
2022/10/22 10:10:47;;;;;;;3.93;1.40;;;19.00;91.30;;;;;;5072821;28;20476;-71
2022/10/22 10:13:38;;;;;;;5.60;1.63;;;19.00;91.50;;;;;;5073038;28;20429;-71
2022/10/22 10:16:13;;;;;;;2.63;1.70;;;19.00;91.50;;;;;;5072649;28;20433;-72
2022/10/22 10:18:56;;;;;;;6.50;1.27;;;19.00;91.40;;;;;;5072689;28;20821;-72
2022/10/22 10:21:31;;;;;;;4.83;1.43;;;19.10;91.30;;;;;;5072910;28;20445;-71
2022/10/22 10:24:08;;;;;;;2.73;1.10;;;19.10;90.80;;;;;;5072751;28;20465;-71
2022/10/22 10:26:42;;;;;;;5.70;1.37;;;19.10;90.50;;;;;;5075538;28;20471;-71
2022/10/22 10:29:22;;;;;;;6.80;1.70;;;19.10;90.70;;;;;;5076330;28;20432;-72
2022/10/22 10:32:08;;;;;;;4.80;1.40;;;19.10;90.70;;;;;;5076866;28;20801;-72
2022/10/22 10:34:43;;;;;;;6.43;2.07;;;19.00;90.60;;;;;;5075940;28;20954;-72
2022/10/22 10:37:19;;;;;;;6.83;1.20;;;19.00;90.70;;;;;;5076300;28;20788;-71
2022/10/22 10:40:03;;;;;;;7.10;1.77;;;19.00;90.90;;;;;;5076170;28;20487;-71
2022/10/22 10:42:36;;;;;;;3.67;1.70;;;19.00;90.60;;;;;;5076188;28;20461;-71
2022/10/22 10:45:15;;;;;;;4.23;1.17;;;18.90;90.10;;;;;;5075968;28;20956;-71
2022/10/22 10:48:01;;;;;;;6.03;1.50;;;18.90;90.50;;;;;;5076365;28;20800;-71
2022/10/22 10:50:33;;;;;;;4.13;1.70;;;18.90;90.70;;;;;;5075956;28;20518;-71
2022/10/22 10:53:07;;;;;;;4.97;1.10;;;18.80;90.50;;;;;;5075897;28;20437;-72
2022/10/22 10:55:41;;;;;;;5.60;1.27;;;18.80;90.80;;;;;;5075472;28;21029;-72
2022/10/22 11:01:37;;;;;;;4.60;1.23;;;18.80;91.00;;;;;;5076140;28;20419;-72
2022/10/22 11:04:24;;;;;;;5.63;2.43;;;18.80;91.00;;;;;;5075846;28;20437;-72
2022/10/22 11:07:02;;;;;;;2.97;1.30;;;18.80;90.90;;;;;;5075562;28;20546;-72
2022/10/22 11:09:35;;;;;;;3.77;1.20;;;18.90;91.10;;;;;;5075221;28;20851;-72
2022/10/22 11:12:09;;;;;;;2.47;1.00;;;18.90;90.80;;;;;;5075646;28;20448;-72
2022/10/22 11:14:47;;;;;;;5.80;1.60;;;18.90;90.60;;;;;;5075287;28;20452;-72
2022/10/22 11:17:18;;;;;;;4.67;1.57;;;18.90;90.80;;;;;;5075721;28;20429;-72
2022/10/22 11:19:51;;;;;;;4.13;1.10;;;19.00;90.70;;;;;;5075393;28;20493;-72
2022/10/22 11:22:26;;;;;;;2.63;1.17;;;19.00;90.70;;;;;;5075468;28;20453;-72
2022/10/22 11:24:57;;;;;;;5.30;1.90;;;19.10;90.50;;;;;;5075267;28;20443;-72
2022/10/22 11:27:35;;;;;;;7.83;1.40;;;19.20;90.10;;;;;;5075520;28;20473;-72
2022/10/22 11:30:11;;;;;;;6.53;1.83;;;19.30;89.10;;;;;;5075192;28;20531;-72
2022/10/22 11:32:40;;;;;;;5.57;1.63;;;19.30;88.70;;;;;;5074997;28;20908;-72
2022/10/22 11:35:11;;;;;;;4.83;1.23;;;19.30;88.00;;;;;;5075590;28;20448;-72
2022/10/22 11:37:39;;;;;;;5.47;1.20;;;19.40;87.90;;;;;;5074404;28;20438;-72
2022/10/22 11:40:08;;;;;;;10.33;1.20;;;19.60;88.30;;;;;;5074947;28;20473;-72
2022/10/22 11:42:38;;;;;;;4.43;1.13;;;19.70;85.20;;;;;;5074625;28;20461;-72
2022/10/22 11:45:27;;;;;;;7.50;1.20;;;19.80;85.40;;;;;;5075009;28;20441;-72
2022/10/22 11:48:05;;;;;;;4.53;1.50;;;19.90;84.50;;;;;;5075250;28;20480;-72
2022/10/22 11:50:49;;;;;;;1.70;0.83;;;19.90;84.40;;;;;;5074655;28;20526;-71
2022/10/22 11:53:28;;;;;;;6.07;1.30;;;19.80;83.30;;;;;;5073667;28;20506;-72
2022/10/22 11:55:58;;;;;;;3.40;1.20;;;19.80;84.10;;;;;;5074631;28;20437;-72
2022/10/22 11:58:33;;;;;;;5.07;1.00;;;19.80;83.00;;;;;;5074560;28;20427;-72
2022/10/22 12:01:25;;;;;;;2.43;1.20;;;19.80;83.20;;;;;;5074705;28;20479;-72
2022/10/22 12:03:53;;;;;;;4.07;1.13;;;19.80;82.70;;;;;;5074766;28;20441;-72
2022/10/22 12:06:23;;;;;;;3.53;1.00;;;19.90;82.80;;;;;;5074649;28;20444;-72
2022/10/22 12:08:59;;;;;;;3.77;1.20;;;19.90;82.30;;;;;;5074199;28;20469;-72
2022/10/22 12:11:28;;;;;;;4.07;1.57;;;20.00;83.40;;;;;;5074109;28;20532;-71
2022/10/22 12:14:17;;;;;;;2.37;0.93;;;20.00;83.10;;;;;;5073970;28;20460;-72
2022/10/22 12:16:46;;;;;;;7.60;1.30;;;20.00;81.50;;;;;;5074224;28;20442;-72
2022/10/22 12:19:16;;;;;;;4.00;0.90;;;20.10;82.60;;;;;;5074369;28;20468;-72
2022/10/22 12:21:47;;;;;;;3.27;1.20;;;20.10;81.40;;;;;;5074265;28;20445;-72
2022/10/22 12:24:15;;;;;;;5.57;1.43;;;20.20;80.20;;;;;;5074144;28;20524;-72
2022/10/22 12:26:42;;;;;;;5.00;0.80;;;20.20;80.00;;;;;;5074097;28;20460;-71
2022/10/22 12:29:14;;;;;;;5.90;1.10;;;20.30;79.50;;;;;;5074824;28;20452;-75
2022/10/22 12:31:43;;;;;;;1.40;0.83;;;20.40;79.10;;;;;;5075673;28;20440;-70
2022/10/22 12:34:14;;;;;;;2.87;1.10;;;20.60;78.20;;;;;;5074569;28;20453;-69
2022/10/22 12:36:41;;;;;;;5.20;1.03;;;20.70;75.80;;;;;;5074684;28;20433;-70
2022/10/22 12:39:13;;;;;;;1.67;0.90;;;20.90;76.40;;;;;;5074636;28;20480;-72
2022/10/22 12:41:40;;;;;;;3.03;1.00;;;21.20;75.30;;;;;;5074389;28;20476;-69
2022/10/22 12:44:07;;;;;;;2.83;1.03;;;21.80;73.50;;;;;;5074386;28;20567;-70
2022/10/22 12:46:35;;;;;;;3.80;0.90;;;22.70;68.50;;;;;;5078200;28;20440;-74
2022/10/22 12:49:07;;;;;;;3.00;0.90;;;23.60;63.50;;;;;;5090963;28;20460;-73
2022/10/22 12:51:34;;;;;;;2.73;1.30;;;24.50;59.90;;;;;;5093243;28;20441;-73
2022/10/22 12:54:06;;;;;;;5.10;1.10;;;25.50;57.40;;;;;;5096731;28;20437;-72
2022/10/22 12:56:35;;;;;;;2.37;0.87;;;26.40;54.10;;;;;;5096654;28;20452;-72
2022/10/22 12:59:04;;;;;;;4.20;1.47;;;27.10;51.90;;;;;;5092762;28;20440;-72
2022/10/22 13:01:36;;;;;;;2.77;0.97;;;27.60;48.70;;;;;;5077883;28;20516;-73
2022/10/22 13:04:20;;;;;;;5.07;1.37;;;27.60;47.60;;;;;;5073745;28;20437;-73